sensor_id;sensor_type;location;lat;lon;timestamp;pressure;altitude;pressure_sealevel;temperature
24201;BMP280;2801;50.972;7.856;2023-07-29T00:01:57;96880.75;;;19.37
24201;BMP280;2801;50.972;7.856;2023-07-29T00:04:24;96888.53;;;19.35
24201;BMP280;2801;50.972;7.856;2023-07-29T00:06:51;96874.59;;;19.29
24201;BMP280;2801;50.972;7.856;2023-07-29T00:09:18;96876.53;;;19.29
24201;BMP280;2801;50.972;7.856;2023-07-29T00:11:45;96876.53;;;19.25
24201;BMP280;2801;50.972;7.856;2023-07-29T00:14:12;96873.41;;;19.20
24201;BMP280;2801;50.972;7.856;2023-07-29T00:16:39;96876.13;;;19.20
24201;BMP280;2801;50.972;7.856;2023-07-29T00:19:10;96871.47;;;19.17
24201;BMP280;2801;50.972;7.856;2023-07-29T00:21:37;96857.50;;;19.15
24201;BMP280;2801;50.972;7.856;2023-07-29T00:24:04;96867.22;;;19.16
24201;BMP280;2801;50.972;7.856;2023-07-29T00:26:31;96863.69;;;19.19
24201;BMP280;2801;50.972;7.856;2023-07-29T00:28:58;96856.72;;;19.21
24201;BMP280;2801;50.972;7.856;2023-07-29T00:31:25;96856.34;;;19.23
24201;BMP280;2801;50.972;7.856;2023-07-29T00:33:52;96855.16;;;19.24
24201;BMP280;2801;50.972;7.856;2023-07-29T00:36:19;96852.44;;;19.24
24201;BMP280;2801;50.972;7.856;2023-07-29T00:38:47;96846.66;;;19.25
24201;BMP280;2801;50.972;7.856;2023-07-29T00:41:15;96838.84;;;19.24
24201;BMP280;2801;50.972;7.856;2023-07-29T00:43:42;96843.13;;;19.28
24201;BMP280;2801;50.972;7.856;2023-07-29T00:46:09;96832.69;;;19.27
24201;BMP280;2801;50.972;7.856;2023-07-29T00:48:37;96837.31;;;19.30
24201;BMP280;2801;50.972;7.856;2023-07-29T00:51:05;96848.16;;;19.30
24201;BMP280;2801;50.972;7.856;2023-07-29T00:53:32;96843.53;;;19.30
24201;BMP280;2801;50.972;7.856;2023-07-29T00:56:00;96842.34;;;19.31
24201;BMP280;2801;50.972;7.856;2023-07-29T00:58:27;96835.78;;;19.25
24201;BMP280;2801;50.972;7.856;2023-07-29T01:00:55;96839.66;;;19.24
24201;BMP280;2801;50.972;7.856;2023-07-29T01:03:22;96838.84;;;19.24
24201;BMP280;2801;50.972;7.856;2023-07-29T01:06:24;96835.38;;;19.16
24201;BMP280;2801;50.972;7.856;2023-07-29T01:09:04;96834.63;;;19.16
24201;BMP280;2801;50.972;7.856;2023-07-29T01:12:12;96835.00;;;19.14
24201;BMP280;2801;50.972;7.856;2023-07-29T01:17:23;96827.63;;;19.15
24201;BMP280;2801;50.972;7.856;2023-07-29T01:20:07;96823.00;;;19.12
24201;BMP280;2801;50.972;7.856;2023-07-29T01:22:37;96823.34;;;19.14
24201;BMP280;2801;50.972;7.856;2023-07-29T01:25:04;96813.66;;;19.13
24201;BMP280;2801;50.972;7.856;2023-07-29T01:27:32;96813.66;;;19.16
24201;BMP280;2801;50.972;7.856;2023-07-29T01:30:00;96810.16;;;19.16
24201;BMP280;2801;50.972;7.856;2023-07-29T01:35:36;96813.66;;;19.13
24201;BMP280;2801;50.972;7.856;2023-07-29T01:38:21;96805.13;;;19.14
24201;BMP280;2801;50.972;7.856;2023-07-29T01:40:52;96804.75;;;19.16
24201;BMP280;2801;50.972;7.856;2023-07-29T01:43:20;96813.66;;;19.16
24201;BMP280;2801;50.972;7.856;2023-07-29T01:45:50;96805.88;;;19.18
24201;BMP280;2801;50.972;7.856;2023-07-29T01:48:17;96802.00;;;19.19
24201;BMP280;2801;50.972;7.856;2023-07-29T01:50:44;96796.56;;;19.23
24201;BMP280;2801;50.972;7.856;2023-07-29T01:53:11;96789.94;;;19.20
24201;BMP280;2801;50.972;7.856;2023-07-29T01:55:39;96790.34;;;19.22
24201;BMP280;2801;50.972;7.856;2023-07-29T01:58:06;96793.44;;;19.24
24201;BMP280;2801;50.972;7.856;2023-07-29T02:00:33;96786.47;;;19.20
24201;BMP280;2801;50.972;7.856;2023-07-29T02:03:00;96785.31;;;19.21
24201;BMP280;2801;50.972;7.856;2023-07-29T02:05:27;96779.09;;;19.20
24201;BMP280;2801;50.972;7.856;2023-07-29T02:07:54;96780.25;;;19.23
24201;BMP280;2801;50.972;7.856;2023-07-29T02:10:21;96779.88;;;19.24
24201;BMP280;2801;50.972;7.856;2023-07-29T02:12:48;96780.66;;;19.25
24201;BMP280;2801;50.972;7.856;2023-07-29T02:15:15;96781.03;;;19.16
24201;BMP280;2801;50.972;7.856;2023-07-29T02:17:42;96778.72;;;19.18
24201;BMP280;2801;50.972;7.856;2023-07-29T02:20:10;96777.53;;;19.19
24201;BMP280;2801;50.972;7.856;2023-07-29T02:22:37;96772.88;;;19.23
24201;BMP280;2801;50.972;7.856;2023-07-29T02:25:05;96777.53;;;19.23
24201;BMP280;2801;50.972;7.856;2023-07-29T02:27:32;96767.47;;;19.20
24201;BMP280;2801;50.972;7.856;2023-07-29T02:30:00;96757.34;;;19.20
24201;BMP280;2801;50.972;7.856;2023-07-29T02:32:27;96763.19;;;19.15
24201;BMP280;2801;50.972;7.856;2023-07-29T02:34:54;96759.69;;;19.15
24201;BMP280;2801;50.972;7.856;2023-07-29T02:37:21;96756.97;;;19.15
24201;BMP280;2801;50.972;7.856;2023-07-29T02:39:48;96738.75;;;19.15
24201;BMP280;2801;50.972;7.856;2023-07-29T02:42:15;96728.66;;;19.12
24201;BMP280;2801;50.972;7.856;2023-07-29T02:44:42;96747.66;;;19.19
24201;BMP280;2801;50.972;7.856;2023-07-29T02:47:09;96744.53;;;19.21
24201;BMP280;2801;50.972;7.856;2023-07-29T02:49:36;96750.38;;;19.23
24201;BMP280;2801;50.972;7.856;2023-07-29T02:52:03;96753.09;;;19.19
24201;BMP280;2801;50.972;7.856;2023-07-29T02:54:31;96756.19;;;19.18
24201;BMP280;2801;50.972;7.856;2023-07-29T02:56:58;96749.97;;;19.21
24201;BMP280;2801;50.972;7.856;2023-07-29T02:59:24;96746.50;;;19.17
24201;BMP280;2801;50.972;7.856;2023-07-29T03:01:52;96739.91;;;19.18
24201;BMP280;2801;50.972;7.856;2023-07-29T03:04:20;96741.03;;;19.20
24201;BMP280;2801;50.972;7.856;2023-07-29T03:06:47;96729.41;;;19.20
24201;BMP280;2801;50.972;7.856;2023-07-29T03:09:15;96734.47;;;19.21
24201;BMP280;2801;50.972;7.856;2023-07-29T03:11:42;96734.47;;;19.18
24201;BMP280;2801;50.972;7.856;2023-07-29T03:14:09;96724.78;;;19.17
24201;BMP280;2801;50.972;7.856;2023-07-29T03:16:35;96721.28;;;19.16
24201;BMP280;2801;50.972;7.856;2023-07-29T03:19:03;96725.94;;;19.16
24201;BMP280;2801;50.972;7.856;2023-07-29T03:21:30;96729.41;;;19.20
24201;BMP280;2801;50.972;7.856;2023-07-29T03:23:57;96732.13;;;19.20
24201;BMP280;2801;50.972;7.856;2023-07-29T03:26:24;96739.09;;;19.21
24201;BMP280;2801;50.972;7.856;2023-07-29T03:28:51;96745.72;;;19.16
24201;BMP280;2801;50.972;7.856;2023-07-29T03:31:17;96748.47;;;19.13
24201;BMP280;2801;50.972;7.856;2023-07-29T03:33:44;96749.25;;;19.10
24201;BMP280;2801;50.972;7.856;2023-07-29T03:36:11;96743.47;;;19.08
24201;BMP280;2801;50.972;7.856;2023-07-29T03:38:38;96740.31;;;19.09
24201;BMP280;2801;50.972;7.856;2023-07-29T03:41:09;96741.88;;;19.07
24201;BMP280;2801;50.972;7.856;2023-07-29T03:43:36;96743.03;;;19.13
24201;BMP280;2801;50.972;7.856;2023-07-29T03:46:02;96736.81;;;19.16
24201;BMP280;2801;50.972;7.856;2023-07-29T03:48:30;96736.44;;;19.17
24201;BMP280;2801;50.972;7.856;2023-07-29T03:50:58;96736.81;;;19.16
24201;BMP280;2801;50.972;7.856;2023-07-29T03:53:25;96732.59;;;19.08
24201;BMP280;2801;50.972;7.856;2023-07-29T03:55:52;96727.91;;;19.08
24201;BMP280;2801;50.972;7.856;2023-07-29T03:58:19;96721.28;;;19.09
24201;BMP280;2801;50.972;7.856;2023-07-29T04:00:46;96720.94;;;19.07
24201;BMP280;2801;50.972;7.856;2023-07-29T04:03:13;96736.81;;;19.12
24201;BMP280;2801;50.972;7.856;2023-07-29T04:05:40;96747.28;;;19.14
24201;BMP280;2801;50.972;7.856;2023-07-29T04:08:07;96750.00;;;19.14
24201;BMP280;2801;50.972;7.856;2023-07-29T04:10:34;96742.25;;;19.16
24201;BMP280;2801;50.972;7.856;2023-07-29T04:13:02;96752.72;;;19.14
24201;BMP280;2801;50.972;7.856;2023-07-29T04:15:29;96757.38;;;19.13
24201;BMP280;2801;50.972;7.856;2023-07-29T04:17:56;96756.97;;;19.15
24201;BMP280;2801;50.972;7.856;2023-07-29T04:20:23;96749.66;;;19.12
24201;BMP280;2801;50.972;7.856;2023-07-29T04:22:50;96756.22;;;19.14
24201;BMP280;2801;50.972;7.856;2023-07-29T04:25:17;96757.38;;;19.17
24201;BMP280;2801;50.972;7.856;2023-07-29T04:27:44;96753.09;;;19.19
24201;BMP280;2801;50.972;7.856;2023-07-29T04:30:11;96759.31;;;19.20
24201;BMP280;2801;50.972;7.856;2023-07-29T04:32:38;96748.81;;;19.22
24201;BMP280;2801;50.972;7.856;2023-07-29T04:35:06;96741.84;;;19.17
24201;BMP280;2801;50.972;7.856;2023-07-29T04:37:33;96752.69;;;19.21
24201;BMP280;2801;50.972;7.856;2023-07-29T04:39:59;96750.75;;;19.18
24201;BMP280;2801;50.972;7.856;2023-07-29T04:42:26;96759.69;;;19.15
24201;BMP280;2801;50.972;7.856;2023-07-29T04:44:53;96738.78;;;19.12
24201;BMP280;2801;50.972;7.856;2023-07-29T04:47:20;96749.63;;;19.15
24201;BMP280;2801;50.972;7.856;2023-07-29T04:49:47;96754.66;;;19.13
24201;BMP280;2801;50.972;7.856;2023-07-29T04:52:15;96733.72;;;19.10
24201;BMP280;2801;50.972;7.856;2023-07-29T04:54:42;96743.47;;;19.08
24201;BMP280;2801;50.972;7.856;2023-07-29T04:57:09;96741.09;;;19.10
24201;BMP280;2801;50.972;7.856;2023-07-29T04:59:37;96736.06;;;19.08
24201;BMP280;2801;50.972;7.856;2023-07-29T05:02:04;96743.78;;;19.13
24201;BMP280;2801;50.972;7.856;2023-07-29T05:04:31;96734.13;;;19.09
24201;BMP280;2801;50.972;7.856;2023-07-29T05:06:58;96736.84;;;19.09
24201;BMP280;2801;50.972;7.856;2023-07-29T05:09:25;96752.34;;;19.12
24201;BMP280;2801;50.972;7.856;2023-07-29T05:11:54;96747.31;;;19.10
24201;BMP280;2801;50.972;7.856;2023-07-29T05:14:21;96752.75;;;19.07
24201;BMP280;2801;50.972;7.856;2023-07-29T05:16:49;96744.59;;;19.07
24201;BMP280;2801;50.972;7.856;2023-07-29T05:19:19;96745.81;;;19.02
24201;BMP280;2801;50.972;7.856;2023-07-29T05:21:46;96750.81;;;19.07
24201;BMP280;2801;50.972;7.856;2023-07-29T05:24:13;96743.81;;;19.10
24201;BMP280;2801;50.972;7.856;2023-07-29T05:26:40;96746.53;;;19.10
24201;BMP280;2801;50.972;7.856;2023-07-29T05:29:07;96743.81;;;19.10
24201;BMP280;2801;50.972;7.856;2023-07-29T05:31:33;96761.25;;;19.12
24201;BMP280;2801;50.972;7.856;2023-07-29T05:34:00;96760.50;;;19.12
24201;BMP280;2801;50.972;7.856;2023-07-29T05:36:27;96755.06;;;19.08
24201;BMP280;2801;50.972;7.856;2023-07-29T05:38:54;96753.13;;;19.12
24201;BMP280;2801;50.972;7.856;2023-07-29T05:41:21;96751.19;;;19.13
24201;BMP280;2801;50.972;7.856;2023-07-29T05:43:48;96748.84;;;19.11
24201;BMP280;2801;50.972;7.856;2023-07-29T05:46:15;96753.91;;;19.13
24201;BMP280;2801;50.972;7.856;2023-07-29T05:48:42;96757.78;;;19.12
24201;BMP280;2801;50.972;7.856;2023-07-29T05:51:09;96765.13;;;19.15
24201;BMP280;2801;50.972;7.856;2023-07-29T05:53:36;96771.75;;;19.17
24201;BMP280;2801;50.972;7.856;2023-07-29T05:56:03;96778.72;;;19.18
24201;BMP280;2801;50.972;7.856;2023-07-29T05:58:30;96779.09;;;19.20
24201;BMP280;2801;50.972;7.856;2023-07-29T06:00:58;96781.41;;;19.22
24201;BMP280;2801;50.972;7.856;2023-07-29T06:03:25;96776.75;;;19.19
24201;BMP280;2801;50.972;7.856;2023-07-29T06:05:54;96782.59;;;19.14
24201;BMP280;2801;50.972;7.856;2023-07-29T06:08:21;96774.84;;;19.12
24201;BMP280;2801;50.972;7.856;2023-07-29T06:10:48;96798.50;;;19.22
24201;BMP280;2801;50.972;7.856;2023-07-29T06:13:15;96800.81;;;19.24
24201;BMP280;2801;50.972;7.856;2023-07-29T06:15:42;96810.16;;;19.23
24201;BMP280;2801;50.972;7.856;2023-07-29T06:18:09;96810.94;;;19.20
24201;BMP280;2801;50.972;7.856;2023-07-29T06:20:35;96804.72;;;19.19
24201;BMP280;2801;50.972;7.856;2023-07-29T06:23:03;96809.78;;;19.17
24201;BMP280;2801;50.972;7.856;2023-07-29T06:25:30;96805.53;;;19.13
24201;BMP280;2801;50.972;7.856;2023-07-29T06:27:57;96792.69;;;19.13
24201;BMP280;2801;50.972;7.856;2023-07-29T06:30:25;96795.81;;;19.12
24201;BMP280;2801;50.972;7.856;2023-07-29T06:32:52;96788.47;;;19.09
24201;BMP280;2801;50.972;7.856;2023-07-29T06:35:19;96784.53;;;19.13
24201;BMP280;2801;50.972;7.856;2023-07-29T06:37:46;96792.28;;;19.15
24201;BMP280;2801;50.972;7.856;2023-07-29T06:40:13;96797.34;;;19.20
24201;BMP280;2801;50.972;7.856;2023-07-29T06:42:40;96796.94;;;19.21
24201;BMP280;2801;50.972;7.856;2023-07-29T06:45:08;96798.88;;;19.24
24201;BMP280;2801;50.972;7.856;2023-07-29T06:47:35;96798.09;;;19.20
24201;BMP280;2801;50.972;7.856;2023-07-29T06:50:02;96808.22;;;19.27
24201;BMP280;2801;50.972;7.856;2023-07-29T06:52:29;96814.03;;;19.29
24201;BMP280;2801;50.972;7.856;2023-07-29T06:54:56;96813.59;;;19.34
24201;BMP280;2801;50.972;7.856;2023-07-29T06:57:23;96818.66;;;19.39
24201;BMP280;2801;50.972;7.856;2023-07-29T06:59:50;96818.25;;;19.40
24201;BMP280;2801;50.972;7.856;2023-07-29T07:02:17;96825.22;;;19.41
24201;BMP280;2801;50.972;7.856;2023-07-29T07:04:44;96839.22;;;19.40
24201;BMP280;2801;50.972;7.856;2023-07-29T07:07:11;96833.81;;;19.36
24201;BMP280;2801;50.972;7.856;2023-07-29T07:09:38;96841.53;;;19.38
24201;BMP280;2801;50.972;7.856;2023-07-29T07:12:05;96851.25;;;19.35
24201;BMP280;2801;50.972;7.856;2023-07-29T07:14:32;96849.31;;;19.36
24201;BMP280;2801;50.972;7.856;2023-07-29T07:16:59;96843.88;;;19.36
24201;BMP280;2801;50.972;7.856;2023-07-29T07:19:26;96845.44;;;19.37
24201;BMP280;2801;50.972;7.856;2023-07-29T07:21:53;96845.03;;;19.38
24201;BMP280;2801;50.972;7.856;2023-07-29T07:24:20;96844.22;;;19.45
24201;BMP280;2801;50.972;7.856;2023-07-29T07:26:47;96854.34;;;19.44
24201;BMP280;2801;50.972;7.856;2023-07-29T07:29:13;96853.56;;;19.44
24201;BMP280;2801;50.972;7.856;2023-07-29T07:31:41;96863.25;;;19.45
24201;BMP280;2801;50.972;7.856;2023-07-29T07:34:07;96853.16;;;19.49
24201;BMP280;2801;50.972;7.856;2023-07-29T07:36:34;96863.63;;;19.54
24201;BMP280;2801;50.972;7.856;2023-07-29T07:39:02;96853.88;;;19.60
24201;BMP280;2801;50.972;7.856;2023-07-29T07:41:29;96858.53;;;19.66
24201;BMP280;2801;50.972;7.856;2023-07-29T07:43:56;96848.00;;;19.72
24201;BMP280;2801;50.972;7.856;2023-07-29T07:46:23;96840.97;;;19.78
24201;BMP280;2801;50.972;7.856;2023-07-29T07:48:49;96837.38;;;19.95
24201;BMP280;2801;50.972;7.856;2023-07-29T07:51:16;96830.22;;;20.18
24201;BMP280;2801;50.972;7.856;2023-07-29T07:53:43;96828.56;;;20.35
24201;BMP280;2801;50.972;7.856;2023-07-29T07:56:10;96828.19;;;20.33
24201;BMP280;2801;50.972;7.856;2023-07-29T07:58:38;96826.38;;;20.19
24201;BMP280;2801;50.972;7.856;2023-07-29T08:01:07;96835.66;;;20.22
24201;BMP280;2801;50.972;7.856;2023-07-29T08:03:38;96841.47;;;20.24
24201;BMP280;2801;50.972;7.856;2023-07-29T08:06:05;96835.22;;;20.27
24201;BMP280;2801;50.972;7.856;2023-07-29T08:08:36;96828.81;;;20.51
24201;BMP280;2801;50.972;7.856;2023-07-29T08:11:03;96822.50;;;20.61
24201;BMP280;2801;50.972;7.856;2023-07-29T08:13:30;96830.16;;;20.73
24201;BMP280;2801;50.972;7.856;2023-07-29T08:15:57;96826.28;;;20.74
24201;BMP280;2801;50.972;7.856;2023-07-29T08:18:24;96834.78;;;20.79
24201;BMP280;2801;50.972;7.856;2023-07-29T08:20:59;96837.19;;;20.74
24201;BMP280;2801;50.972;7.856;2023-07-29T08:23:31;96842.22;;;20.75
24201;BMP280;2801;50.972;7.856;2023-07-29T08:26:02;96839.50;;;20.72
24201;BMP280;2801;50.972;7.856;2023-07-29T08:28:34;96845.81;;;20.62
24201;BMP280;2801;50.972;7.856;2023-07-29T08:31:02;96853.28;;;20.54
24201;BMP280;2801;50.972;7.856;2023-07-29T08:33:30;96861.56;;;20.40
24201;BMP280;2801;50.972;7.856;2023-07-29T08:35:57;96868.25;;;20.32
24201;BMP280;2801;50.972;7.856;2023-07-29T08:38:24;96858.63;;;20.21
24201;BMP280;2801;50.972;7.856;2023-07-29T08:41:19;96862.22;;;19.97
24201;BMP280;2801;50.972;7.856;2023-07-29T08:44:04;96859.94;;;19.92
24201;BMP280;2801;50.972;7.856;2023-07-29T08:46:37;96855.25;;;19.92
24201;BMP280;2801;50.972;7.856;2023-07-29T08:49:06;96854.91;;;19.87
24201;BMP280;2801;50.972;7.856;2023-07-29T08:51:34;96856.81;;;19.90
24201;BMP280;2801;50.972;7.856;2023-07-29T08:54:03;96862.63;;;19.99
24201;BMP280;2801;50.972;7.856;2023-07-29T08:56:30;96852.47;;;20.10
24201;BMP280;2801;50.972;7.856;2023-07-29T08:58:58;96842.25;;;20.24
24201;BMP280;2801;50.972;7.856;2023-07-29T09:01:27;96848.44;;;20.28
24201;BMP280;2801;50.972;7.856;2023-07-29T09:03:55;96853.50;;;20.26
24201;BMP280;2801;50.972;7.856;2023-07-29T09:06:24;96846.81;;;20.38
24201;BMP280;2801;50.972;7.856;2023-07-29T09:08:54;96849.03;;;20.50
24201;BMP280;2801;50.972;7.856;2023-07-29T09:11:23;96854.03;;;20.58
24201;BMP280;2801;50.972;7.856;2023-07-29T09:13:50;96858.66;;;20.65
24201;BMP280;2801;50.972;7.856;2023-07-29T09:16:17;96865.91;;;20.78
24201;BMP280;2801;50.972;7.856;2023-07-29T09:18:47;96854.94;;;20.85
24201;BMP280;2801;50.972;7.856;2023-07-29T09:21:17;96861.13;;;20.89
24201;BMP280;2801;50.972;7.856;2023-07-29T09:23:45;96870.56;;;20.81
24201;BMP280;2801;50.972;7.856;2023-07-29T09:26:12;96864.31;;;20.81
24201;BMP280;2801;50.972;7.856;2023-07-29T09:28:40;96874.00;;;20.92
24201;BMP280;2801;50.972;7.856;2023-07-29T09:31:22;96863.34;;;21.05
24201;BMP280;2801;50.972;7.856;2023-07-29T09:33:50;96868.25;;;21.20
24201;BMP280;2801;50.972;7.856;2023-07-29T09:36:22;96869.88;;;21.14
24201;BMP280;2801;50.972;7.856;2023-07-29T09:38:53;96872.63;;;21.11
24201;BMP280;2801;50.972;7.856;2023-07-29T09:41:29;96869.22;;;21.03
24201;BMP280;2801;50.972;7.856;2023-07-29T09:44:00;96870.28;;;21.13
24201;BMP280;2801;50.972;7.856;2023-07-29T09:46:38;96869.81;;;21.21
24201;BMP280;2801;50.972;7.856;2023-07-29T09:49:07;96861.66;;;21.18
24201;BMP280;2801;50.972;7.856;2023-07-29T09:51:41;96856.72;;;21.06
24201;BMP280;2801;50.972;7.856;2023-07-29T09:54:10;96867.69;;;20.99
24201;BMP280;2801;50.972;7.856;2023-07-29T09:56:41;96872.00;;;20.96
24201;BMP280;2801;50.972;7.856;2023-07-29T09:59:10;96868.03;;;21.04
24201;BMP280;2801;50.972;7.856;2023-07-29T10:01:39;96867.50;;;21.16
24201;BMP280;2801;50.972;7.856;2023-07-29T10:04:07;96864.16;;;21.39
24201;BMP280;2801;50.972;7.856;2023-07-29T10:06:40;96860.84;;;21.54
24201;BMP280;2801;50.972;7.856;2023-07-29T10:09:09;96880.50;;;21.73
24201;BMP280;2801;50.972;7.856;2023-07-29T10:11:38;96886.03;;;21.66
24201;BMP280;2801;50.972;7.856;2023-07-29T10:14:06;96886.16;;;21.55
24201;BMP280;2801;50.972;7.856;2023-07-29T10:16:37;96890.16;;;21.47
24201;BMP280;2801;50.972;7.856;2023-07-29T10:19:07;96889.47;;;21.39
24201;BMP280;2801;50.972;7.856;2023-07-29T10:21:38;96886.31;;;21.41
24201;BMP280;2801;50.972;7.856;2023-07-29T10:24:15;96889.56;;;21.29
24201;BMP280;2801;50.972;7.856;2023-07-29T10:26:46;96893.09;;;21.29
24201;BMP280;2801;50.972;7.856;2023-07-29T10:29:19;96892.28;;;21.29
24201;BMP280;2801;50.972;7.856;2023-07-29T10:31:52;96881.78;;;21.27
24201;BMP280;2801;50.972;7.856;2023-07-29T10:34:21;96889.56;;;21.29
24201;BMP280;2801;50.972;7.856;2023-07-29T10:36:51;96884.84;;;21.33
24201;BMP280;2801;50.972;7.856;2023-07-29T10:39:19;96875.72;;;21.46
24201;BMP280;2801;50.972;7.856;2023-07-29T10:42:00;96878.09;;;21.78
24201;BMP280;2801;50.972;7.856;2023-07-29T10:47:23;96878.03;;;21.85
24201;BMP280;2801;50.972;7.856;2023-07-29T10:49:56;96878.03;;;21.85
24201;BMP280;2801;50.972;7.856;2023-07-29T10:55:02;96862.72;;;22.21
24201;BMP280;2801;50.972;7.856;2023-07-29T10:57:37;96869.50;;;22.36
24201;BMP280;2801;50.972;7.856;2023-07-29T11:00:05;96867.13;;;22.38
24201;BMP280;2801;50.972;7.856;2023-07-29T11:02:35;96867.50;;;22.40
24201;BMP280;2801;50.972;7.856;2023-07-29T11:05:08;96864.69;;;22.44
24201;BMP280;2801;50.972;7.856;2023-07-29T11:07:45;96870.16;;;22.47
24201;BMP280;2801;50.972;7.856;2023-07-29T11:10:14;96867.75;;;22.49
24201;BMP280;2801;50.972;7.856;2023-07-29T11:12:46;96863.09;;;22.46
24201;BMP280;2801;50.972;7.856;2023-07-29T11:15:25;96855.19;;;22.55
24201;BMP280;2801;50.972;7.856;2023-07-29T11:17:53;96871.03;;;22.64
24201;BMP280;2801;50.972;7.856;2023-07-29T11:20:26;96870.78;;;22.55
24201;BMP280;2801;50.972;7.856;2023-07-29T11:22:56;96877.47;;;22.50
24201;BMP280;2801;50.972;7.856;2023-07-29T11:25:25;96878.16;;;22.31
24201;BMP280;2801;50.972;7.856;2023-07-29T11:27:55;96879.34;;;22.30
24201;BMP280;2801;50.972;7.856;2023-07-29T11:30:22;96885.63;;;22.27
24201;BMP280;2801;50.972;7.856;2023-07-29T11:32:50;96886.91;;;22.19
24201;BMP280;2801;50.972;7.856;2023-07-29T11:35:18;96885.78;;;22.17
24201;BMP280;2801;50.972;7.856;2023-07-29T11:37:48;96888.13;;;22.15
24201;BMP280;2801;50.972;7.856;2023-07-29T11:42:50;96894.75;;;22.17
24201;BMP280;2801;50.972;7.856;2023-07-29T11:45:19;96888.03;;;22.22
24201;BMP280;2801;50.972;7.856;2023-07-29T11:47:46;96890.81;;;22.18
24201;BMP280;2801;50.972;7.856;2023-07-29T11:50:15;96889.28;;;22.17
24201;BMP280;2801;50.972;7.856;2023-07-29T11:52:46;96891.75;;;22.08
24201;BMP280;2801;50.972;7.856;2023-07-29T11:55:15;96888.97;;;22.12
24201;BMP280;2801;50.972;7.856;2023-07-29T11:57:43;96886.19;;;22.15
24201;BMP280;2801;50.972;7.856;2023-07-29T12:00:11;96878.09;;;22.08
24201;BMP280;2801;50.972;7.856;2023-07-29T12:02:42;96880.38;;;22.13
24201;BMP280;2801;50.972;7.856;2023-07-29T12:05:14;96885.97;;;22.03
24201;BMP280;2801;50.972;7.856;2023-07-29T12:07:44;96884.53;;;21.95
24201;BMP280;2801;50.972;7.856;2023-07-29T12:10:11;96882.66;;;21.88
24201;BMP280;2801;50.972;7.856;2023-07-29T12:12:46;96889.63;;;21.93
24201;BMP280;2801;50.972;7.856;2023-07-29T12:15:23;96885.75;;;21.90
24201;BMP280;2801;50.972;7.856;2023-07-29T12:17:54;96882.47;;;22.02
24201;BMP280;2801;50.972;7.856;2023-07-29T12:20:24;96884.44;;;22.02
24201;BMP280;2801;50.972;7.856;2023-07-29T12:22:56;96880.56;;;21.99
24201;BMP280;2801;50.972;7.856;2023-07-29T12:25:24;96878.19;;;22.01
24201;BMP280;2801;50.972;7.856;2023-07-29T12:27:52;96873.44;;;22.05
24201;BMP280;2801;50.972;7.856;2023-07-29T12:30:23;96874.59;;;22.08
24201;BMP280;2801;50.972;7.856;2023-07-29T12:32:52;96879.44;;;22.23
24201;BMP280;2801;50.972;7.856;2023-07-29T12:35:19;96882.56;;;22.22
24201;BMP280;2801;50.972;7.856;2023-07-29T12:37:46;96887.94;;;22.29
24201;BMP280;2801;50.972;7.856;2023-07-29T12:40:24;96883.38;;;22.19
24201;BMP280;2801;50.972;7.856;2023-07-29T12:42:52;96880.13;;;22.31
24201;BMP280;2801;50.972;7.856;2023-07-29T12:45:19;96879.34;;;22.30
24201;BMP280;2801;50.972;7.856;2023-07-29T12:47:49;96883.59;;;22.31
24201;BMP280;2801;50.972;7.856;2023-07-29T12:50:16;96878.22;;;22.28
24201;BMP280;2801;50.972;7.856;2023-07-29T12:52:43;96872.44;;;22.22
24201;BMP280;2801;50.972;7.856;2023-07-29T12:55:10;96874.38;;;22.22
24201;BMP280;2801;50.972;7.856;2023-07-29T12:57:42;96868.91;;;22.22
24201;BMP280;2801;50.972;7.856;2023-07-29T13:00:10;96871.97;;;22.27
24201;BMP280;2801;50.972;7.856;2023-07-29T13:02:38;96877.41;;;22.27
24201;BMP280;2801;50.972;7.856;2023-07-29T13:05:09;96869.22;;;22.27
24201;BMP280;2801;50.972;7.856;2023-07-29T13:07:43;96861.84;;;22.24
24201;BMP280;2801;50.972;7.856;2023-07-29T13:10:11;96861.41;;;22.29
24201;BMP280;2801;50.972;7.856;2023-07-29T13:12:39;96864.28;;;22.45
24201;BMP280;2801;50.972;7.856;2023-07-29T13:15:07;96855.91;;;22.59
24201;BMP280;2801;50.972;7.856;2023-07-29T13:17:34;96865.03;;;22.72
24201;BMP280;2801;50.972;7.856;2023-07-29T13:20:02;96851.25;;;22.79
24201;BMP280;2801;50.972;7.856;2023-07-29T13:22:29;96853.75;;;22.93
24201;BMP280;2801;50.972;7.856;2023-07-29T13:24:56;96859.50;;;23.18
24201;BMP280;2801;50.972;7.856;2023-07-29T13:27:23;96856.31;;;23.43
24201;BMP280;2801;50.972;7.856;2023-07-29T13:29:50;96864.22;;;23.60
24201;BMP280;2801;50.972;7.856;2023-07-29T13:32:17;96857.94;;;23.79
24201;BMP280;2801;50.972;7.856;2023-07-29T13:34:44;96873.41;;;23.70
24201;BMP280;2801;50.972;7.856;2023-07-29T13:37:11;96874.78;;;23.58
24201;BMP280;2801;50.972;7.856;2023-07-29T13:39:38;96867.78;;;23.38
24201;BMP280;2801;50.972;7.856;2023-07-29T13:42:06;96869.22;;;23.23
24201;BMP280;2801;50.972;7.856;2023-07-29T13:44:33;96869.81;;;23.11
24201;BMP280;2801;50.972;7.856;2023-07-29T13:46:59;96870.53;;;23.15
24201;BMP280;2801;50.972;7.856;2023-07-29T13:49:26;96857.97;;;23.17
24201;BMP280;2801;50.972;7.856;2023-07-29T13:51:53;96870.44;;;23.18
24201;BMP280;2801;50.972;7.856;2023-07-29T13:54:20;96869.00;;;23.14
24201;BMP280;2801;50.972;7.856;2023-07-29T13:56:48;96872.19;;;23.09
24201;BMP280;2801;50.972;7.856;2023-07-29T13:59:15;96873.91;;;22.99
24201;BMP280;2801;50.972;7.856;2023-07-29T14:01:42;96879.16;;;22.90
24201;BMP280;2801;50.972;7.856;2023-07-29T14:04:09;96879.28;;;22.83
24201;BMP280;2801;50.972;7.856;2023-07-29T14:06:36;96880.59;;;22.75
24201;BMP280;2801;50.972;7.856;2023-07-29T14:09:12;96884.97;;;22.69
24201;BMP280;2801;50.972;7.856;2023-07-29T14:11:39;96864.03;;;22.63
24201;BMP280;2801;50.972;7.856;2023-07-29T14:14:07;96867.94;;;22.62
24201;BMP280;2801;50.972;7.856;2023-07-29T14:16:34;96863.41;;;22.52
24201;BMP280;2801;50.972;7.856;2023-07-29T14:19:02;96865.81;;;22.46
24201;BMP280;2801;50.972;7.856;2023-07-29T14:21:30;96856.97;;;22.39
24201;BMP280;2801;50.972;7.856;2023-07-29T14:23:56;96852.34;;;22.36
24201;BMP280;2801;50.972;7.856;2023-07-29T14:26:23;96855.53;;;22.31
24201;BMP280;2801;50.972;7.856;2023-07-29T14:28:51;96847.31;;;22.08
24201;BMP280;2801;50.972;7.856;2023-07-29T14:31:18;96856.25;;;22.08
24201;BMP280;2801;50.972;7.856;2023-07-29T14:33:45;96860.28;;;22.00
24201;BMP280;2801;50.972;7.856;2023-07-29T14:36:12;96859.97;;;21.95
24201;BMP280;2801;50.972;7.856;2023-07-29T14:38:39;96866.19;;;21.95
24201;BMP280;2801;50.972;7.856;2023-07-29T14:41:06;96871.69;;;21.92
24201;BMP280;2801;50.972;7.856;2023-07-29T14:43:34;96872.88;;;21.91